Accueil
METAR-TAF:

METAR-TAF

Aéroports :

Montichiari

Brescia, Italie

latitude: 45-24-02N, longitude: 010-18-59E, altitude: 104 m

Observation

Le bulletin a été fait il y a 30 heures et 22 minutes, à 15:50 UTC
Vent 5 kt de sud/sud-ouest
Température 30°C
Humidité 38%
Pression 1013 hPa
Visibilité 10 km ou plus
pas de nuages en-dessous de 1500 mètres et pas de cumulonimbus.

METAR: LIPO 171550Z 20005KT CAVOK 30/14 Q1013

Heure: 00:12 (22:12 UTC)

Prévision

Le bulletin a été fait il y a 23 heures et 12 minutes, à 23:00 UTC
Prévision valable du 20 à 00 UTC au 20 à 24 UTC
Vent 5 kt de direction variable
Visibilité 10 km ou plus
Nuages épars à une hauteur de 4000 ft
Probabilité 40% :
Temporairement
du 20 à 12 UTC au 20 à 17 UTC
orage, pluie

TAF: LIPO 192300Z 2000/2024 VRB05KT 9999 SCT040 PROB40 TEMPO 2012/2017 TSRA

Observations et prévisions météorologiques de plus de 4000 aéroports (messages METAR et TAF).

Les stations disponibles sont représentées par des disques jaunes et rouges sur la carte.

Passer la souris dessus pour voir le nom de la station.

Cliquer dessus pour voir les observations et prévisions météorologiques.

Pour changer de carte: cliquez sur les boutons verts avec une croix noire pour zoomer, sur le bouton vert avec un tiret pour effectuer un zoom arrière, ou sur les flèches vertes pour les cartes adjacentes.


METAR-TAF: